Time;durP1;ratioP1;P1;durP2;ratioP2;P2;SDS_P1;SDS_P2;PMS_P1;PMS_P2;Temp;Humidity;BMP_temperature;BMP_pressure;BME280_temperature;BME280_humidity;BME280_pressure;Samples;Min_cycle;Max_cycle;Signal;HPM_P1;HPM_P2
2022/05/08 00:01:21;;;;;;;8.40;4.73;;;13.40;99.90;;;;;;4993914;28;20659;-69
2022/05/08 00:03:48;;;;;;;8.23;4.30;;;13.40;99.90;;;;;;4993175;28;20205;-68
2022/05/08 00:06:16;;;;;;;5.43;4.40;;;13.20;99.90;;;;;;4993377;28;20263;-69
2022/05/08 00:08:43;;;;;;;10.20;4.83;;;13.20;99.90;;;;;;4992524;28;20615;-68
2022/05/08 00:11:10;;;;;;;8.17;4.97;;;13.20;99.90;;;;;;4992482;28;20280;-69
2022/05/08 00:13:37;;;;;;;6.93;4.83;;;13.00;99.90;;;;;;4992844;28;20197;-69
2022/05/08 00:16:04;;;;;;;12.67;6.07;;;13.00;99.90;;;;;;4994359;28;20250;-67
2022/05/08 00:18:31;;;;;;;8.33;5.10;;;12.90;99.90;;;;;;4993873;28;20208;-67
2022/05/08 00:20:58;;;;;;;11.27;5.43;;;12.90;99.90;;;;;;4993540;28;20201;-67
2022/05/08 00:23:26;;;;;;;9.80;5.37;;;12.90;99.90;;;;;;4992264;28;20659;-67
2022/05/08 00:25:53;;;;;;;9.90;5.10;;;12.80;99.90;;;;;;4994236;28;20205;-67
2022/05/08 00:28:20;;;;;;;11.57;6.33;;;12.90;99.90;;;;;;4994013;28;20220;-67
2022/05/08 00:30:47;;;;;;;13.50;6.80;;;12.70;99.90;;;;;;4993836;28;20232;-67
2022/05/08 00:33:14;;;;;;;12.43;6.20;;;12.50;99.90;;;;;;4993217;28;20207;-67
2022/05/08 00:35:40;;;;;;;14.17;6.57;;;12.30;99.90;;;;;;4974521;28;20684;-67
2022/05/08 00:38:08;;;;;;;14.00;6.50;;;12.30;99.90;;;;;;4990920;28;20443;-67
2022/05/08 00:40:37;;;;;;;11.67;5.90;;;12.10;99.90;;;;;;4993725;28;20227;-67
2022/05/08 00:43:32;;;;;;;11.83;6.37;;;12.20;99.90;;;;;;4993383;28;20755;-67
2022/05/08 00:46:00;;;;;;;15.80;6.47;;;12.10;99.90;;;;;;4993463;28;20263;-67
2022/05/08 00:48:27;;;;;;;12.50;6.40;;;12.10;99.90;;;;;;4993087;28;20205;-67
2022/05/08 00:50:54;;;;;;;12.93;6.60;;;12.10;99.90;;;;;;4993562;28;20232;-67
2022/05/08 00:53:21;;;;;;;15.30;6.80;;;12.10;99.90;;;;;;4993097;28;20200;-67
2022/05/08 00:55:49;;;;;;;16.60;6.67;;;12.10;99.90;;;;;;4993690;28;20204;-67
2022/05/08 00:58:17;;;;;;;15.13;6.90;;;11.90;99.90;;;;;;4993166;28;20197;-67
2022/05/08 01:00:45;;;;;;;14.20;5.93;;;12.00;99.90;;;;;;4993154;28;20668;-67
2022/05/08 01:03:14;;;;;;;17.17;6.20;;;11.80;99.90;;;;;;4992777;28;20256;-67
2022/05/08 01:05:42;;;;;;;14.83;5.57;;;11.70;99.90;;;;;;4993617;28;20581;-67
2022/05/08 01:08:09;;;;;;;13.60;5.37;;;11.50;99.90;;;;;;4992576;28;20204;-67
2022/05/08 01:10:37;;;;;;;17.77;6.70;;;11.60;99.90;;;;;;4993676;28;20228;-67
2022/05/08 01:13:06;;;;;;;18.33;6.07;;;11.50;99.90;;;;;;4992997;28;20605;-67
2022/05/08 01:15:41;;;;;;;17.93;5.90;;;11.50;99.90;;;;;;4993279;28;20213;-67
2022/05/08 01:18:08;;;;;;;15.43;5.63;;;11.60;99.90;;;;;;4992513;28;20216;-67
2022/05/08 01:20:35;;;;;;;14.90;5.70;;;11.60;99.90;;;;;;4993059;28;20204;-67
2022/05/08 01:23:04;;;;;;;15.50;5.63;;;11.40;99.90;;;;;;4991998;28;20204;-67
2022/05/08 01:25:31;;;;;;;15.50;6.07;;;11.50;99.90;;;;;;4992864;28;20204;-67
2022/05/08 01:27:58;;;;;;;14.93;5.30;;;11.60;99.90;;;;;;4992782;28;20205;-67
2022/05/08 01:30:25;;;;;;;17.23;6.97;;;11.60;99.90;;;;;;4992861;28;20220;-68
2022/05/08 01:32:52;;;;;;;13.80;5.50;;;11.20;99.90;;;;;;4992247;28;20259;-67
2022/05/08 01:35:20;;;;;;;17.83;6.30;;;11.20;99.90;;;;;;4992941;28;20201;-67
2022/05/08 01:37:47;;;;;;;16.87;5.70;;;10.90;1.00;;;;;;4992432;28;20208;-67
2022/05/08 01:40:17;;;;;;;13.53;5.17;;;11.10;1.00;;;;;;4992514;28;20260;-67
2022/05/08 01:42:44;;;;;;;12.10;4.57;;;11.20;1.00;;;;;;4992942;28;20251;-67
2022/05/08 01:45:12;;;;;;;17.67;5.20;;;11.10;1.00;;;;;;4993074;28;20205;-67
2022/05/08 01:50:23;;;;;;;17.30;4.63;;;10.80;1.00;;;;;;4992363;28;20705;-67
2022/05/08 01:52:50;;;;;;;16.60;4.80;;;10.80;1.00;;;;;;4988242;28;20275;-67
2022/05/08 01:55:19;;;;;;;17.10;4.43;;;10.70;1.00;;;;;;4992312;28;20213;-67
2022/05/08 01:57:46;;;;;;;12.53;4.70;;;10.60;1.00;;;;;;4992233;28;20201;-67
2022/05/08 02:00:13;;;;;;;14.33;4.97;;;10.60;1.00;;;;;;4972862;28;20294;-67
2022/05/08 02:02:43;;;;;;;20.73;5.20;;;10.60;1.00;;;;;;4975432;28;20204;-67
2022/05/08 02:05:10;;;;;;;17.90;4.97;;;10.60;99.90;;;;;;4992678;28;20304;-67
2022/05/08 02:07:37;;;;;;;12.43;4.53;;;10.60;1.00;;;;;;4992006;28;20246;-67
2022/05/08 02:10:05;;;;;;;18.40;4.60;;;10.50;99.90;;;;;;4992316;28;20583;-67
2022/05/08 02:12:33;;;;;;;14.63;4.60;;;10.50;99.90;;;;;;4992336;28;20213;-67
2022/05/08 02:15:00;;;;;;;15.47;5.13;;;10.30;99.90;;;;;;4992770;28;20231;-67
2022/05/08 02:17:26;;;;;;;14.20;4.60;;;10.30;99.90;;;;;;4992621;28;20300;-67
2022/05/08 02:19:53;;;;;;;13.67;4.40;;;10.30;99.90;;;;;;4988654;28;20671;-67
2022/05/08 02:22:20;;;;;;;15.17;4.37;;;10.30;99.90;;;;;;5001266;28;20208;-67
2022/05/08 02:24:47;;;;;;;15.40;4.20;;;10.30;99.90;;;;;;4992758;28;20205;-67
2022/05/08 02:27:14;;;;;;;12.20;3.77;;;10.20;99.90;;;;;;4992331;28;20215;-67
2022/05/08 02:29:42;;;;;;;15.07;4.73;;;10.30;1.00;;;;;;4991614;28;20204;-67
2022/05/08 02:32:10;;;;;;;13.90;4.07;;;10.30;30.80;;;;;;4992228;28;20566;-67
2022/05/08 02:34:36;;;;;;;20.27;4.40;;;10.30;99.90;;;;;;4991698;28;20206;-67
2022/05/08 02:37:03;;;;;;;13.87;4.27;;;10.20;1.00;;;;;;4992436;28;20573;-67
2022/05/08 02:39:30;;;;;;;15.63;3.87;;;10.30;1.00;;;;;;4990414;28;20197;-67
2022/05/08 02:41:57;;;;;;;17.50;4.87;;;10.20;1.00;;;;;;4992392;28;20205;-67
2022/05/08 02:44:24;;;;;;;15.80;4.77;;;10.20;1.00;;;;;;4993732;28;20197;-67
2022/05/08 02:46:52;;;;;;;21.40;5.13;;;10.20;99.90;;;;;;4994852;28;20209;-67
2022/05/08 02:49:19;;;;;;;19.80;5.37;;;10.30;99.90;;;;;;4996305;28;20200;-67
2022/05/08 02:51:46;;;;;;;15.50;4.20;;;10.20;1.00;;;;;;4999127;28;20295;-67
2022/05/08 02:54:13;;;;;;;15.20;4.40;;;10.10;1.00;;;;;;4998686;28;20216;-67
2022/05/08 02:59:24;;;;;;;17.47;3.97;;;9.70;1.00;;;;;;4995167;28;20207;-67
2022/05/08 03:01:52;;;;;;;17.93;4.63;;;9.60;1.00;;;;;;4995570;28;20569;-67
2022/05/08 03:04:19;;;;;;;15.93;4.00;;;9.60;1.00;;;;;;4995015;28;20747;-67
2022/05/08 03:06:45;;;;;;;15.00;3.67;;;9.80;1.00;;;;;;5005649;28;20211;-67
2022/05/08 03:09:12;;;;;;;18.93;4.33;;;9.80;1.00;;;;;;5001665;28;20196;-67
2022/05/08 03:11:39;;;;;;;14.37;4.40;;;9.70;1.00;;;;;;4994759;28;20224;-67
2022/05/08 03:14:06;;;;;;;13.37;4.00;;;9.80;99.90;;;;;;4995427;28;20216;-67
2022/05/08 03:16:33;;;;;;;15.47;4.33;;;9.60;1.00;;;;;;4995720;28;20205;-67
2022/05/08 03:19:01;;;;;;;11.07;3.97;;;9.40;1.00;;;;;;4995044;28;20668;-67
2022/05/08 03:21:28;;;;;;;18.60;4.93;;;9.20;99.90;;;;;;4995692;28;20205;-67
2022/05/08 03:23:55;;;;;;;14.00;4.37;;;9.20;99.90;;;;;;4994618;28;20656;-67
2022/05/08 03:26:22;;;;;;;16.53;4.67;;;9.30;99.90;;;;;;4995391;28;20205;-67
2022/05/08 03:28:49;;;;;;;22.23;4.53;;;9.40;1.00;;;;;;4994973;28;20201;-69
2022/05/08 03:31:16;;;;;;;19.63;4.63;;;9.20;91.40;;;;;;4995380;28;20239;-67
2022/05/08 03:33:43;;;;;;;17.43;5.07;;;9.30;99.90;;;;;;4995014;28;20204;-67
2022/05/08 03:36:11;;;;;;;15.00;4.40;;;9.10;1.00;;;;;;4995325;28;20201;-68
2022/05/08 03:38:43;;;;;;;17.13;4.23;;;9.00;99.90;;;;;;4994755;28;20209;-68
2022/05/08 03:41:14;;;;;;;17.00;4.63;;;8.90;99.90;;;;;;4994801;28;20212;-67
2022/05/08 03:43:41;;;;;;;12.23;3.80;;;9.10;99.90;;;;;;4995049;28;20660;-68
2022/05/08 03:46:08;;;;;;;11.50;3.83;;;9.00;12.40;;;;;;4995150;28;20217;-68
2022/05/08 03:48:36;;;;;;;14.10;4.67;;;8.90;1.00;;;;;;4994727;28;20205;-68
2022/05/08 03:51:03;;;;;;;17.90;4.57;;;9.00;99.90;;;;;;4993796;28;20217;-68
2022/05/08 03:53:31;;;;;;;19.73;4.17;;;9.10;1.00;;;;;;4992922;28;20521;-68
2022/05/08 03:55:58;;;;;;;21.40;5.07;;;9.10;1.00;;;;;;4993955;28;20197;-68
2022/05/08 03:58:26;;;;;;;14.93;3.70;;;9.20;1.00;;;;;;4994584;28;20204;-68
2022/05/08 04:00:52;;;;;;;11.87;3.70;;;9.40;30.20;;;;;;4994152;28;20201;-67
2022/05/08 04:03:19;;;;;;;13.60;3.97;;;9.60;1.00;;;;;;4994333;28;20217;-68
2022/05/08 04:05:46;;;;;;;13.50;4.20;;;9.80;1.00;;;;;;4994541;28;20211;-67
2022/05/08 04:08:13;;;;;;;14.30;3.83;;;9.80;99.90;;;;;;4993305;28;20204;-68
2022/05/08 04:10:41;;;;;;;14.20;3.87;;;10.10;1.00;;;;;;4993696;28;20227;-68
2022/05/08 04:13:08;;;;;;;16.47;3.47;;;10.00;1.00;;;;;;4993911;28;20213;-67
2022/05/08 04:18:19;;;;;;;13.37;4.90;;;10.10;1.00;;;;;;4994190;28;20288;-67
2022/05/08 04:20:46;;;;;;;13.17;3.37;;;10.20;1.00;;;;;;4993769;28;20208;-68
2022/05/08 04:25:58;;;;;;;16.83;4.10;;;10.60;99.90;;;;;;4993799;28;20291;-67
2022/05/08 04:28:25;;;;;;;12.73;3.67;;;10.50;99.90;;;;;;4994144;28;20204;-68
2022/05/08 04:30:52;;;;;;;13.80;4.47;;;10.60;1.00;;;;;;4993712;28;20683;-68
2022/05/08 04:33:19;;;;;;;18.27;3.83;;;10.20;99.90;;;;;;4993942;28;20300;-67
2022/05/08 04:35:46;;;;;;;14.07;3.93;;;9.80;99.90;;;;;;4994283;28;20576;-68
2022/05/08 04:38:12;;;;;;;17.47;3.77;;;10.20;99.90;;;;;;4993855;28;20201;-67
2022/05/08 04:40:41;;;;;;;10.73;3.80;;;10.80;1.00;;;;;;4993481;28;20659;-68
2022/05/08 04:43:09;;;;;;;15.80;4.20;;;11.00;99.90;;;;;;4993810;28;20213;-68
2022/05/08 04:45:36;;;;;;;17.37;3.97;;;11.00;1.00;;;;;;4993693;28;20208;-68
2022/05/08 04:48:03;;;;;;;14.23;3.60;;;11.10;1.00;;;;;;4994019;28;20664;-68
2022/05/08 04:50:30;;;;;;;16.80;4.03;;;11.40;1.00;;;;;;4993086;28;20213;-68
2022/05/08 04:52:57;;;;;;;15.33;3.57;;;11.00;99.90;;;;;;4993973;28;20216;-68
2022/05/08 04:55:24;;;;;;;12.37;4.07;;;11.10;1.00;;;;;;4992981;28;20542;-68
2022/05/08 04:57:50;;;;;;;22.73;4.70;;;11.70;1.00;;;;;;4993592;28;20205;-68
2022/05/08 05:00:19;;;;;;;14.03;3.63;;;12.10;1.00;;;;;;4993398;28;20205;-68
2022/05/08 05:02:46;;;;;;;14.47;4.37;;;12.10;99.90;;;;;;4993785;28;20657;-67
2022/05/08 05:05:13;;;;;;;15.53;3.50;;;12.60;36.90;;;;;;4993276;28;20205;-68
2022/05/08 05:07:41;;;;;;;12.87;3.70;;;12.60;1.00;;;;;;4991728;28;20307;-68
2022/05/08 05:10:10;;;;;;;26.63;4.67;;;12.70;1.00;;;;;;4992187;28;20208;-68
2022/05/08 05:12:37;;;;;;;12.87;3.30;;;11.90;99.20;;;;;;4993099;28;20221;-68
2022/05/08 05:15:04;;;;;;;17.13;4.73;;;12.40;1.00;;;;;;4993334;28;20204;-68
2022/05/08 05:17:33;;;;;;;11.57;4.00;;;11.40;99.90;;;;;;4993452;28;20207;-68
2022/05/08 05:20:00;;;;;;;11.87;4.20;;;11.40;1.00;;;;;;4993011;28;20213;-68
2022/05/08 05:22:27;;;;;;;17.03;5.27;;;11.70;1.00;;;;;;4992519;28;20193;-69
2022/05/08 05:24:56;;;;;;;16.50;4.80;;;11.80;1.00;;;;;;4992804;28;20658;-68
2022/05/08 05:27:23;;;;;;;15.13;3.93;;;12.00;1.00;;;;;;4991100;28;20285;-68
2022/05/08 05:29:50;;;;;;;14.37;4.27;;;11.80;48.20;;;;;;4992904;28;20208;-68
2022/05/08 05:32:17;;;;;;;13.17;4.37;;;11.30;99.90;;;;;;4993147;28;20722;-68
2022/05/08 05:34:45;;;;;;;14.73;4.00;;;11.40;1.00;;;;;;4993262;28;20668;-68
2022/05/08 05:37:12;;;;;;;11.00;3.40;;;11.30;1.00;;;;;;4992732;28;20211;-68
2022/05/08 05:39:39;;;;;;;14.43;4.07;;;11.70;99.90;;;;;;4992725;28;20578;-69
2022/05/08 05:42:06;;;;;;;17.00;4.07;;;11.20;99.90;;;;;;4991871;28;20193;-68
2022/05/08 05:44:32;;;;;;;11.43;3.60;;;10.90;1.00;;;;;;4992589;28;20206;-67
2022/05/08 05:49:45;;;;;;;12.50;3.67;;;11.20;1.00;;;;;;4992684;28;20307;-67
2022/05/08 05:52:11;;;;;;;18.53;4.30;;;11.10;1.00;;;;;;4991210;28;20225;-67
2022/05/08 05:54:38;;;;;;;15.50;4.90;;;11.20;1.00;;;;;;4986078;28;20205;-68
2022/05/08 05:57:05;;;;;;;11.93;3.87;;;11.40;1.00;;;;;;4993161;28;20219;-67
2022/05/08 05:59:32;;;;;;;15.03;3.50;;;11.40;1.00;;;;;;4986864;28;20198;-68
2022/05/08 06:01:59;;;;;;;12.60;3.87;;;11.20;99.90;;;;;;4986284;28;20201;-68
2022/05/08 06:04:26;;;;;;;13.43;4.30;;;11.10;1.00;;;;;;4992451;28;20217;-68
2022/05/08 06:06:54;;;;;;;9.77;3.20;;;11.00;99.90;;;;;;4976322;28;20202;-68
2022/05/08 06:09:21;;;;;;;17.03;3.80;;;10.80;1.00;;;;;;4975332;28;20201;-67
2022/05/08 06:11:48;;;;;;;17.60;4.97;;;11.10;1.00;;;;;;4974554;28;20225;-68
2022/05/08 06:14:15;;;;;;;10.97;3.47;;;11.30;99.90;;;;;;4992310;28;20211;-67
2022/05/08 06:16:42;;;;;;;13.63;3.90;;;11.30;37.90;;;;;;4992962;28;20205;-68
2022/05/08 06:19:09;;;;;;;13.53;3.07;;;11.40;1.00;;;;;;4993325;28;20216;-68
2022/05/08 06:21:36;;;;;;;10.27;3.03;;;11.50;96.90;;;;;;4995563;28;20662;-68
2022/05/08 06:24:05;;;;;;;11.63;3.40;;;11.50;1.00;;;;;;4996046;28;20193;-68
2022/05/08 06:26:32;;;;;;;10.17;2.97;;;11.20;13.30;;;;;;4996026;28;20205;-68
2022/05/08 06:28:59;;;;;;;10.57;2.70;;;11.40;99.90;;;;;;4996318;28;20212;-68
2022/05/08 06:31:27;;;;;;;13.93;2.60;;;11.20;1.00;;;;;;4996301;28;20733;-68
2022/05/08 06:33:54;;;;;;;12.83;2.67;;;11.50;1.00;;;;;;4996624;28;20244;-68
2022/05/08 06:36:21;;;;;;;10.77;2.40;;;11.40;1.00;;;;;;4995795;28;20223;-68
2022/05/08 06:38:48;;;;;;;11.30;2.70;;;11.40;1.00;;;;;;4996212;28;20205;-68
2022/05/08 06:41:16;;;;;;;12.30;2.67;;;11.40;1.00;;;;;;4995698;28;20209;-68
2022/05/08 06:43:44;;;;;;;8.97;2.33;;;11.60;1.00;;;;;;4996052;28;20209;-67
2022/05/08 06:46:12;;;;;;;13.60;3.20;;;11.50;99.90;;;;;;4995776;28;20201;-68
2022/05/08 06:48:39;;;;;;;7.13;2.17;;;11.50;1.00;;;;;;4994862;28;20205;-68
2022/05/08 06:51:06;;;;;;;13.77;2.87;;;11.50;1.00;;;;;;5004225;28;20542;-68
2022/05/08 06:53:33;;;;;;;13.47;3.17;;;11.70;1.00;;;;;;4996140;28;20201;-68
2022/05/08 06:56:00;;;;;;;7.37;2.77;;;11.40;99.90;;;;;;4995580;28;20208;-68
2022/05/08 06:58:28;;;;;;;9.80;2.80;;;11.70;99.90;;;;;;4990558;28;20639;-68
2022/05/08 07:03:40;;;;;;;12.33;2.73;;;12.70;1.00;;;;;;4992212;28;20578;-68
2022/05/08 07:06:07;;;;;;;14.93;3.07;;;12.80;1.00;;;;;;4988863;28;20213;-68
2022/05/08 07:08:35;;;;;;;14.20;2.97;;;12.30;1.00;;;;;;4994725;28;20298;-67
2022/05/08 07:11:02;;;;;;;21.30;3.00;;;12.80;1.00;;;;;;4994491;28;20236;-68
2022/05/08 07:13:33;;;;;;;9.03;2.30;;;12.10;1.00;;;;;;4995136;28;20316;-68
2022/05/08 07:16:00;;;;;;;8.97;2.47;;;11.70;1.00;;;;;;4992931;28;20292;-67
2022/05/08 07:18:29;;;;;;;10.07;2.40;;;11.60;1.00;;;;;;4994273;28;20200;-68
2022/05/08 07:20:56;;;;;;;8.87;2.60;;;11.70;1.00;;;;;;4988752;28;20607;-68
2022/05/08 07:23:23;;;;;;;8.33;2.57;;;11.60;1.00;;;;;;4992070;28;20248;-68
2022/05/08 07:25:50;;;;;;;6.80;2.47;;;11.80;1.00;;;;;;4981338;28;20205;-68
2022/05/08 07:28:17;;;;;;;12.47;3.03;;;11.60;1.00;;;;;;4985777;28;20198;-68
2022/05/08 07:30:45;;;;;;;12.27;4.10;;;11.90;1.00;;;;;;4987100;28;20207;-68
2022/05/08 07:33:16;;;;;;;11.60;2.63;;;11.80;36.90;;;;;;4981318;28;20232;-68
2022/05/08 07:38:27;;;;;;;10.40;2.70;;;11.70;1.00;;;;;;4985627;28;20723;-68
2022/05/08 07:40:54;;;;;;;11.90;2.77;;;11.60;1.00;;;;;;4979019;28;20220;-68
2022/05/08 07:43:21;;;;;;;7.57;2.40;;;11.80;1.00;;;;;;4978749;28;20213;-68
2022/05/08 07:45:49;;;;;;;9.77;2.70;;;12.00;1.00;;;;;;4990173;28;20209;-68
2022/05/08 07:48:17;;;;;;;7.73;2.37;;;12.00;1.00;;;;;;4991583;28;20205;-68
2022/05/08 07:50:44;;;;;;;13.17;3.10;;;12.10;1.00;;;;;;4994394;28;20209;-68
2022/05/08 07:53:11;;;;;;;10.90;3.00;;;11.90;1.00;;;;;;4983474;28;20229;-68
2022/05/08 07:55:38;;;;;;;9.87;3.23;;;11.90;1.00;;;;;;4990704;28;20208;-68
2022/05/08 07:58:05;;;;;;;11.17;3.07;;;11.90;1.00;;;;;;5002863;28;20201;-68
2022/05/08 08:00:31;;;;;;;13.03;3.20;;;11.90;1.00;;;;;;4994296;28;20652;-68
2022/05/08 08:03:00;;;;;;;11.20;2.77;;;12.00;1.00;;;;;;4991638;28;20202;-68
2022/05/08 08:05:27;;;;;;;9.67;2.67;;;11.70;1.00;;;;;;4993018;28;20197;-68
2022/05/08 08:07:53;;;;;;;8.47;2.30;;;11.90;1.00;;;;;;4985552;28;20423;-68
2022/05/08 08:10:20;;;;;;;10.90;2.80;;;12.20;99.90;;;;;;4993856;28;20672;-68
2022/05/08 08:12:47;;;;;;;10.10;3.03;;;12.30;99.90;;;;;;4994182;28;20573;-68
2022/05/08 08:15:14;;;;;;;9.07;2.87;;;12.40;99.90;;;;;;4994220;28;20470;-68
2022/05/08 08:17:41;;;;;;;7.63;2.23;;;12.40;99.90;;;;;;4994412;28;20212;-68
2022/05/08 08:20:10;;;;;;;8.20;2.33;;;12.10;99.90;;;;;;4993309;28;20247;-68
2022/05/08 08:22:37;;;;;;;9.67;2.40;;;12.50;99.90;;;;;;4993586;28;20212;-68
2022/05/08 08:25:05;;;;;;;10.67;2.57;;;12.70;73.20;;;;;;4993472;28;20201;-68
2022/05/08 08:27:32;;;;;;;8.67;2.70;;;12.70;32.50;;;;;;4990248;28;20220;-68
2022/05/08 08:29:59;;;;;;;10.53;3.20;;;12.50;1.00;;;;;;4993598;28;20201;-68
2022/05/08 08:32:26;;;;;;;11.63;3.03;;;12.70;50.50;;;;;;4993957;28;20695;-68
2022/05/08 08:34:54;;;;;;;11.67;2.83;;;13.20;99.90;;;;;;4993722;28;20201;-68
2022/05/08 08:37:22;;;;;;;8.80;2.63;;;13.00;39.70;;;;;;4993609;28;20201;-68
2022/05/08 08:39:49;;;;;;;6.23;2.60;;;12.90;1.00;;;;;;4993714;28;20484;-68
2022/05/08 08:42:26;;;;;;;10.83;2.47;;;12.40;1.00;;;;;;4993218;28;20201;-68
2022/05/08 08:47:48;;;;;;;12.93;2.90;;;13.10;30.00;;;;;;4993602;28;20200;-68
2022/05/08 08:50:17;;;;;;;10.80;2.70;;;13.20;1.00;;;;;;4986946;28;20308;-68
2022/05/08 08:52:46;;;;;;;12.90;3.30;;;13.20;1.00;;;;;;4991814;28;20692;-68
2022/05/08 08:55:13;;;;;;;6.33;2.30;;;13.70;1.00;;;;;;4991024;28;20454;-68
2022/05/08 08:57:39;;;;;;;9.57;2.60;;;13.80;1.00;;;;;;4985521;28;20201;-68
2022/05/08 09:00:08;;;;;;;7.37;2.20;;;14.60;1.00;;;;;;4992739;28;20292;-68
2022/05/08 09:02:35;;;;;;;7.67;2.37;;;15.10;1.00;;;;;;4987169;28;20212;-68
2022/05/08 09:05:05;;;;;;;9.50;3.07;;;15.50;1.00;;;;;;4992803;28;20219;-68
2022/05/08 09:07:40;;;;;;;8.27;2.30;;;15.20;1.00;;;;;;4989208;28;20201;-68
2022/05/08 09:10:10;;;;;;;6.57;2.20;;;15.40;1.00;;;;;;4981894;28;20575;-68
2022/05/08 09:12:38;;;;;;;13.07;3.27;;;15.90;1.00;;;;;;4986635;28;20231;-68
2022/05/08 09:15:22;;;;;;;9.10;4.03;;;16.10;1.00;;;;;;4990286;28;20220;-68
2022/05/08 09:17:50;;;;;;;7.72;3.40;;;15.90;1.00;;;;;;4985971;28;20361;-68
2022/05/08 09:20:34;;;;;;;6.97;2.63;;;15.90;1.00;;;;;;4991839;28;20526;-68
2022/05/08 09:23:10;;;;;;;8.20;2.85;;;16.00;1.00;;;;;;4992587;28;20704;-68
2022/05/08 09:25:52;;;;;;;5.90;2.67;;;16.30;1.00;;;;;;4973649;28;20216;-68
2022/05/08 09:28:21;;;;;;;9.60;4.80;;;16.00;1.00;;;;;;4990900;28;20209;-68
2022/05/08 09:30:55;;;;;;;10.80;3.58;;;16.10;1.00;;;;;;4985402;28;20662;-68
2022/05/08 09:33:24;;;;;;;11.75;3.88;;;16.70;1.00;;;;;;4989755;28;20221;-68
2022/05/08 09:35:51;;;;;;;10.02;2.97;;;16.50;1.00;;;;;;4985110;28;20592;-68
2022/05/08 09:38:18;;;;;;;8.77;3.10;;;16.90;1.00;;;;;;4989969;28;20216;-68
2022/05/08 09:40:46;;;;;;;9.93;3.47;;;16.90;1.00;;;;;;4975848;28;20213;-68
2022/05/08 09:43:27;;;;;;;13.75;5.50;;;16.90;1.00;;;;;;4992712;28;20224;-68
2022/05/08 09:45:58;;;;;;;10.95;3.10;;;17.30;1.00;;;;;;4990753;28;20209;-68
2022/05/08 09:48:26;;;;;;;8.45;3.42;;;17.30;99.90;;;;;;4976943;28;20204;-68
2022/05/08 09:50:56;;;;;;;8.00;3.00;;;17.90;1.00;;;;;;4992038;28;20205;-68
2022/05/08 09:53:24;;;;;;;8.88;2.35;;;17.70;99.90;;;;;;4993770;28;20229;-68
2022/05/08 09:55:53;;;;;;;6.45;2.67;;;17.40;99.90;;;;;;4993201;28;20208;-68
2022/05/08 09:58:21;;;;;;;6.75;2.78;;;17.70;99.90;;;;;;4999609;28;20208;-68
2022/05/08 10:00:48;;;;;;;6.05;2.25;;;17.70;99.90;;;;;;4999570;28;20205;-68
2022/05/08 10:03:16;;;;;;;5.55;2.58;;;17.60;99.90;;;;;;4997408;28;20196;-68
2022/05/08 10:05:43;;;;;;;11.07;2.75;;;17.20;99.90;;;;;;5002270;28;20204;-68
2022/05/08 10:08:12;;;;;;;6.22;2.30;;;17.90;99.90;;;;;;4998235;28;20207;-68
2022/05/08 10:13:56;;;;;;;7.65;2.63;;;18.00;99.90;;;;;;4998367;28;20263;-68
2022/05/08 10:16:48;;;;;;;5.32;2.78;;;17.40;99.90;;;;;;4994454;28;20204;-68
2022/05/08 10:19:46;;;;;;;7.20;2.40;;;17.90;99.90;;;;;;4992478;28;20204;-68
2022/05/08 10:22:14;;;;;;;6.97;2.90;;;17.40;99.90;;;;;;4995903;28;20205;-68
2022/05/08 10:24:46;;;;;;;6.28;2.97;;;17.30;99.90;;;;;;4997856;28;20655;-69
2022/05/08 10:27:15;;;;;;;8.27;2.72;;;18.30;99.90;;;;;;4997352;28;20209;-69
2022/05/08 10:30:05;;;;;;;7.85;2.60;;;18.40;99.90;;;;;;4995750;28;20217;-69
2022/05/08 10:32:51;;;;;;;7.35;2.45;;;17.50;99.90;;;;;;4989184;28;20225;-69
2022/05/08 10:35:20;;;;;;;6.70;3.05;;;17.90;99.90;;;;;;4997836;28;20216;-69
2022/05/08 10:37:49;;;;;;;7.13;2.55;;;17.50;99.90;;;;;;4991186;28;20576;-69
2022/05/08 10:40:36;;;;;;;6.45;2.75;;;18.20;99.90;;;;;;4995601;28;20212;-69
2022/05/08 10:43:25;;;;;;;7.78;2.17;;;18.40;99.90;;;;;;4997587;28;20200;-69
2022/05/08 10:45:54;;;;;;;11.68;3.22;;;18.20;99.90;;;;;;4985700;28;20193;-69
2022/05/08 10:48:21;;;;;;;7.70;2.67;;;17.50;99.90;;;;;;4997375;28;20215;-69
2022/05/08 10:50:50;;;;;;;9.30;2.53;;;18.20;99.90;;;;;;5008820;28;20204;-69
2022/05/08 10:53:28;;;;;;;8.20;2.30;;;18.60;99.90;;;;;;4998026;28;20593;-69
2022/05/08 10:56:05;;;;;;;7.30;2.58;;;18.60;99.90;;;;;;4990076;28;20196;-69
2022/05/08 10:58:33;;;;;;;8.13;2.60;;;18.10;99.90;;;;;;5000266;28;20593;-69
2022/05/08 11:01:03;;;;;;;5.93;2.55;;;18.80;99.90;;;;;;5001715;28;20205;-69
2022/05/08 11:03:30;;;;;;;6.25;2.47;;;19.00;99.90;;;;;;4998193;28;20208;-69
2022/05/08 11:05:58;;;;;;;10.52;3.45;;;19.10;99.90;;;;;;4999176;28;20288;-69
2022/05/08 11:08:28;;;;;;;5.72;2.40;;;19.10;99.90;;;;;;4994181;28;20228;-69
2022/05/08 11:11:04;;;;;;;6.88;2.60;;;18.20;99.90;;;;;;4994617;28;20209;-69
2022/05/08 11:13:46;;;;;;;7.85;2.38;;;18.90;99.90;;;;;;4990808;28;20221;-69
2022/05/08 11:16:29;;;;;;;6.95;2.60;;;18.00;99.90;;;;;;4988347;28;20207;-69
2022/05/08 11:18:59;;;;;;;9.05;2.80;;;18.70;99.90;;;;;;4993570;28;20255;-69
2022/05/08 11:21:26;;;;;;;8.45;2.47;;;19.20;99.90;;;;;;4995177;28;20216;-69
2022/05/08 11:23:54;;;;;;;3.22;2.17;;;18.20;99.90;;;;;;4992207;28;20198;-69
2022/05/08 11:26:29;;;;;;;6.75;2.25;;;19.20;99.90;;;;;;4994122;28;20252;-69
2022/05/08 11:28:58;;;;;;;5.53;2.47;;;18.40;99.90;;;;;;4992064;28;20687;-69
2022/05/08 11:31:28;;;;;;;7.90;2.72;;;18.10;99.90;;;;;;4991256;28;20193;-69
2022/05/08 11:36:40;;;;;;;4.32;2.63;;;18.90;99.90;;;;;;4983269;28;20767;-69
2022/05/08 11:39:10;;;;;;;6.70;2.47;;;18.60;99.90;;;;;;4989080;28;20232;-69
2022/05/08 11:41:38;;;;;;;7.50;2.65;;;19.60;99.90;;;;;;4986328;28;20239;-69
2022/05/08 11:44:28;;;;;;;8.60;2.63;;;19.60;99.90;;;;;;4991876;28;20614;-69
2022/05/08 11:46:57;;;;;;;7.60;2.40;;;18.90;99.90;;;;;;4993648;28;20618;-69
2022/05/08 11:49:25;;;;;;;7.45;2.92;;;18.30;99.90;;;;;;4992391;28;20211;-69
2022/05/08 11:51:54;;;;;;;7.63;2.55;;;19.30;99.90;;;;;;4989321;28;20202;-69
2022/05/08 11:54:23;;;;;;;8.35;2.35;;;19.40;99.90;;;;;;4991383;28;20275;-69
2022/05/08 11:56:51;;;;;;;9.43;2.70;;;20.20;99.90;;;;;;4992541;28;20216;-69
2022/05/08 11:59:20;;;;;;;5.95;3.05;;;19.90;99.90;;;;;;4988069;28;20276;-69
2022/05/08 12:01:52;;;;;;;8.15;2.80;;;19.70;99.90;;;;;;4992269;28;20216;-69
2022/05/08 12:04:26;;;;;;;5.88;2.22;;;19.70;99.90;;;;;;4993583;28;20296;-70
2022/05/08 12:07:01;;;;;;;8.10;2.85;;;19.90;99.90;;;;;;4991655;28;20204;-69
2022/05/08 12:09:29;;;;;;;8.77;2.47;;;19.90;99.90;;;;;;4987190;28;20241;-69
2022/05/08 12:11:56;;;;;;;8.95;2.83;;;20.30;99.90;;;;;;4986400;28;20201;-69
2022/05/08 12:14:32;;;;;;;6.65;2.20;;;20.10;99.90;;;;;;4992324;28;20228;-69
2022/05/08 12:17:01;;;;;;;4.50;2.20;;;19.70;99.90;;;;;;4991783;28;20731;-69
2022/05/08 12:19:29;;;;;;;7.55;2.45;;;19.50;99.90;;;;;;4993664;28;20204;-69
2022/05/08 12:21:56;;;;;;;7.50;2.60;;;19.80;99.90;;;;;;4990953;28;20209;-69
2022/05/08 12:24:23;;;;;;;6.25;2.00;;;18.90;99.90;;;;;;4990414;28;20205;-69
2022/05/08 12:26:51;;;;;;;7.10;2.42;;;18.70;99.90;;;;;;4994108;28;20209;-69
2022/05/08 12:29:20;;;;;;;6.97;2.13;;;19.40;99.90;;;;;;4985308;28;20205;-69
2022/05/08 12:31:49;;;;;;;5.00;2.25;;;18.60;99.90;;;;;;4992419;28;20197;-69
2022/05/08 12:34:17;;;;;;;6.13;2.30;;;20.20;99.90;;;;;;4990534;28;20228;-69
2022/05/08 12:36:45;;;;;;;7.88;2.63;;;20.40;99.90;;;;;;4992794;28;20197;-69
2022/05/08 12:39:12;;;;;;;9.57;3.28;;;20.40;99.90;;;;;;4992772;28;20212;-69
2022/05/08 12:41:40;;;;;;;5.28;2.10;;;20.40;99.90;;;;;;4985961;28;20584;-69
2022/05/08 12:44:07;;;;;;;6.38;2.00;;;20.70;99.90;;;;;;4985581;28;20197;-69
2022/05/08 12:46:35;;;;;;;5.68;2.47;;;20.00;99.90;;;;;;4987190;28;20204;-69
2022/05/08 12:49:03;;;;;;;9.30;3.17;;;19.40;99.90;;;;;;4992828;28;20208;-69
2022/05/08 12:51:32;;;;;;;6.10;2.25;;;18.90;99.90;;;;;;4984203;28;20212;-68
2022/05/08 12:54:02;;;;;;;7.53;2.53;;;19.80;99.90;;;;;;4990667;28;20568;-68
2022/05/08 12:56:29;;;;;;;6.78;2.70;;;19.20;99.90;;;;;;4984902;28;20205;-69
2022/05/08 13:01:40;;;;;;;9.95;2.67;;;19.40;99.90;;;;;;4983869;28;20583;-69
2022/05/08 13:04:07;;;;;;;5.53;2.80;;;19.90;99.90;;;;;;4980806;28;20198;-69
2022/05/08 13:06:35;;;;;;;8.55;2.95;;;20.40;99.90;;;;;;4986982;28;20222;-69
2022/05/08 13:09:03;;;;;;;5.65;2.42;;;20.70;99.90;;;;;;4985827;28;20209;-69
2022/05/08 13:11:31;;;;;;;11.05;2.97;;;20.70;99.90;;;;;;4983858;28;20197;-69
2022/05/08 13:13:58;;;;;;;7.10;2.63;;;20.60;99.90;;;;;;4980699;28;20216;-69
2022/05/08 13:16:25;;;;;;;6.00;2.50;;;20.30;99.90;;;;;;4985777;28;20197;-69
2022/05/08 13:18:52;;;;;;;4.88;2.17;;;20.30;99.90;;;;;;4991345;28;20197;-69
2022/05/08 13:21:19;;;;;;;10.02;2.88;;;20.30;99.90;;;;;;4978278;28;20198;-69
2022/05/08 13:23:46;;;;;;;11.07;3.10;;;19.10;99.90;;;;;;4992216;28;20205;-69